Time;durP1;ratioP1;P1;durP2;ratioP2;P2;SDS_P1;SDS_P2;PMS_P1;PMS_P2;Temp;Humidity;BMP_temperature;BMP_pressure;BME280_temperature;BME280_humidity;BME280_pressure;Samples;Min_cycle;Max_cycle;Signal;HPM_P1;HPM_P2
2022/10/02 00:00:24;;;;;;;0.90;0.80;;;11.40;97.30;;;;;;4940790;29;21035;-88
2022/10/02 00:06:40;;;;;;;0.93;0.90;;;11.30;97.30;;;;;;4840421;29;20464;-87
2022/10/02 00:09:45;;;;;;;0.90;0.80;;;11.30;97.30;;;;;;4839971;29;20519;-88
2022/10/02 00:13:13;;;;;;;2.00;1.90;;;11.30;97.30;;;;;;4838587;29;20423;-87
2022/10/02 00:16:06;;;;;;;;;;;;;;;;;;;;;
2022/10/02 00:22:24;;;;;;;1.27;1.17;;;11.30;97.30;;;;;;4987207;28;20714;-88
2022/10/02 00:28:34;;;;;;;2.37;1.10;;;11.30;97.30;;;;;;5004636;28;20421;-87
2022/10/02 00:31:11;;;;;;;4.63;1.73;;;11.20;97.30;;;;;;5023597;28;20917;-88
2022/10/02 00:34:02;;;;;;;2.40;1.30;;;11.20;97.30;;;;;;5049059;28;20411;-88
2022/10/02 00:36:36;;;;;;;4.00;1.67;;;11.30;97.30;;;;;;5052225;28;20913;-88
2022/10/02 00:39:27;;;;;;;1.20;1.10;;;11.20;97.30;;;;;;5041187;28;20743;-87
2022/10/02 00:42:04;;;;;;;1.10;1.00;;;11.20;97.30;;;;;;5051960;28;20892;-88
2022/10/02 00:44:42;;;;;;;0.90;0.80;;;11.20;97.30;;;;;;5052303;28;20506;-88
2022/10/02 00:47:26;;;;;;;1.10;1.00;;;11.20;97.30;;;;;;5042134;28;20527;-87
2022/10/02 00:50:26;;;;;;;1.17;1.00;;;11.20;97.30;;;;;;5048541;28;20443;-88
2022/10/02 00:53:25;;;;;;;1.00;0.90;;;11.20;97.30;;;;;;5048408;28;20415;-88
2022/10/02 00:56:08;;;;;;;1.20;1.10;;;11.20;97.30;;;;;;5052182;28;20425;-88
2022/10/02 00:58:39;;;;;;;3.77;1.63;;;11.20;97.30;;;;;;5063132;28;20442;-88
2022/10/02 01:01:55;;;;;;;1.63;1.27;;;11.20;97.30;;;;;;5058746;28;20438;-88
2022/10/02 01:04:53;;;;;;;;;;;;;;;;;;;;;
2022/10/02 01:07:44;;;;;;;0.97;0.90;;;11.20;97.30;;;;;;5054872;28;20472;-88
2022/10/02 01:10:25;;;;;;;1.37;1.27;;;11.20;97.30;;;;;;5043552;28;20510;-88
2022/10/02 01:13:04;;;;;;;1.30;1.20;;;11.20;97.30;;;;;;5052803;28;20423;-89
2022/10/02 01:16:05;;;;;;;1.03;0.93;;;11.20;97.30;;;;;;5051815;28;20647;-88
2022/10/02 01:19:24;;;;;;;1.03;1.00;;;11.20;97.30;;;;;;5055386;28;20425;-88
2022/10/02 01:22:21;;;;;;;1.10;1.00;;;11.10;97.30;;;;;;5000978;28;20432;-88
2022/10/02 01:25:00;;;;;;;0.90;0.80;;;11.10;97.30;;;;;;5000353;28;20424;-89
2022/10/02 01:27:26;;;;;;;1.10;1.00;;;11.10;97.30;;;;;;5011868;28;21017;-88
2022/10/02 01:30:06;;;;;;;1.20;1.10;;;11.10;97.30;;;;;;5054352;28;20449;-88
2022/10/02 01:32:34;;;;;;;6.33;1.27;;;11.10;97.30;;;;;;5046495;28;20423;-87
2022/10/02 01:35:00;;;;;;;6.93;1.50;;;11.10;97.30;;;;;;5045397;28;20425;-88
2022/10/02 01:37:29;;;;;;;1.33;1.10;;;11.10;97.30;;;;;;5051491;28;20414;-88
2022/10/02 01:40:01;;;;;;;1.13;1.03;;;11.10;97.30;;;;;;5051059;28;20465;-88
2022/10/02 01:42:27;;;;;;;4.50;2.13;;;11.00;97.30;;;;;;5043231;28;20754;-87
2022/10/02 01:44:53;;;;;;;1.00;0.90;;;11.00;97.30;;;;;;5045778;28;20473;-87
2022/10/02 01:47:46;;;;;;;1.43;1.33;;;11.00;97.30;;;;;;5050490;28;21014;-88
2022/10/02 01:50:30;;;;;;;1.00;0.90;;;11.00;97.30;;;;;;5038695;28;20235;-88
2022/10/02 01:53:11;;;;;;;12.03;1.73;;;11.00;97.30;;;;;;5049335;28;20410;-87
2022/10/02 01:55:43;;;;;;;1.73;1.57;;;11.00;97.30;;;;;;5050609;28;20418;-88
2022/10/02 01:58:28;;;;;;;1.30;1.20;;;11.10;97.30;;;;;;5033299;28;20415;-87
2022/10/02 02:01:06;;;;;;;1.50;1.10;;;11.10;97.30;;;;;;5045106;28;20422;-88
2022/10/02 02:03:35;;;;;;;0.90;0.90;;;11.10;97.30;;;;;;5051237;28;20426;-88
2022/10/02 02:06:18;;;;;;;2.33;2.03;;;11.10;97.30;;;;;;5050108;28;20425;-87
2022/10/02 02:09:08;;;;;;;1.60;1.50;;;11.10;97.30;;;;;;5049782;28;20960;-88
2022/10/02 02:11:39;;;;;;;1.10;1.00;;;11.10;97.30;;;;;;5039146;28;20414;-88
2022/10/02 02:14:15;;;;;;;0.93;0.90;;;11.10;97.30;;;;;;5049552;28;20430;-88
2022/10/02 02:16:49;;;;;;;1.10;1.07;;;11.10;97.30;;;;;;5039533;28;20521;-87
2022/10/02 02:19:32;;;;;;;1.33;0.90;;;11.20;97.30;;;;;;5048661;28;20529;-88
2022/10/02 02:22:02;;;;;;;1.17;1.07;;;11.20;97.30;;;;;;5051925;28;20418;-87
2022/10/02 02:24:44;;;;;;;1.03;0.93;;;11.20;97.30;;;;;;5049920;28;20449;-87
2022/10/02 02:27:14;;;;;;;2.30;1.30;;;11.20;97.30;;;;;;5051041;28;20462;-87
2022/10/02 02:29:44;;;;;;;1.30;1.03;;;11.20;97.30;;;;;;5050467;28;20522;-87
2022/10/02 02:32:15;;;;;;;2.17;1.00;;;11.20;97.30;;;;;;5049846;28;20420;-87
2022/10/02 02:34:45;;;;;;;0.83;0.80;;;11.20;97.30;;;;;;5050238;28;20925;-87
2022/10/02 02:37:17;;;;;;;3.70;1.73;;;11.20;97.30;;;;;;5037395;28;20441;-87
2022/10/02 02:40:06;;;;;;;1.20;1.10;;;11.20;97.30;;;;;;5049200;28;20450;-87
2022/10/02 02:42:38;;;;;;;0.90;0.80;;;11.20;97.30;;;;;;5049489;28;20513;-87
2022/10/02 02:45:23;;;;;;;2.17;1.33;;;11.20;97.30;;;;;;5044984;28;20848;-87
2022/10/02 02:48:02;;;;;;;1.10;1.07;;;11.20;97.30;;;;;;5043873;28;20892;-87
2022/10/02 02:50:36;;;;;;;1.20;1.03;;;11.20;97.30;;;;;;5040658;28;20438;-88
2022/10/02 02:53:28;;;;;;;1.10;1.00;;;11.20;97.30;;;;;;5049737;28;20483;-87
2022/10/02 02:55:58;;;;;;;1.00;0.90;;;11.10;97.30;;;;;;5049629;28;20450;-87
2022/10/02 02:58:42;;;;;;;1.23;1.20;;;11.10;97.30;;;;;;5031888;28;20415;-87
2022/10/02 03:01:15;;;;;;;6.93;1.10;;;11.20;97.30;;;;;;5047538;28;20425;-89
2022/10/02 03:03:47;;;;;;;3.67;1.70;;;11.10;97.30;;;;;;5039999;28;20419;-88
2022/10/02 03:06:17;;;;;;;1.00;0.90;;;11.10;97.30;;;;;;5051054;28;20458;-88
2022/10/02 03:08:49;;;;;;;1.27;1.20;;;11.10;97.30;;;;;;5053986;28;20430;-88
2022/10/02 03:15:11;;;;;;;1.07;0.97;;;11.10;97.30;;;;;;5014262;28;20403;-87
2022/10/02 03:18:04;;;;;;;1.00;0.90;;;11.10;97.30;;;;;;5068719;28;20446;-87
2022/10/02 03:20:55;;;;;;;1.67;1.30;;;11.10;97.30;;;;;;5059723;22;20482;-89
2022/10/02 03:24:12;;;;;;;2.10;1.73;;;11.10;97.30;;;;;;5040470;28;20570;-87
2022/10/02 03:27:03;;;;;;;1.20;1.10;;;11.10;97.30;;;;;;5046893;28;20866;-88
2022/10/02 03:29:48;;;;;;;0.97;0.93;;;11.10;97.30;;;;;;5052816;28;20525;-87
2022/10/02 03:32:16;;;;;;;1.60;1.50;;;11.10;97.30;;;;;;5033134;28;20502;-88
2022/10/02 03:34:42;;;;;;;1.40;1.30;;;11.10;97.30;;;;;;5034188;28;20417;-87
2022/10/02 03:37:08;;;;;;;1.40;1.30;;;11.10;97.30;;;;;;5034625;28;21011;-88
2022/10/02 03:39:34;;;;;;;1.10;1.00;;;11.00;97.30;;;;;;5051178;28;20447;-88
2022/10/02 03:41:59;;;;;;;0.93;0.83;;;11.00;97.30;;;;;;5033208;28;20216;-87
2022/10/02 03:44:25;;;;;;;1.73;1.63;;;11.00;97.30;;;;;;5033261;28;20238;-87
2022/10/02 03:46:51;;;;;;;1.70;1.50;;;11.00;97.30;;;;;;5033719;28;20609;-88
2022/10/02 03:49:16;;;;;;;1.20;1.10;;;11.00;97.30;;;;;;5032654;28;20231;-87
2022/10/02 03:51:42;;;;;;;1.77;1.60;;;11.00;97.30;;;;;;5032558;28;20177;-88
2022/10/02 03:54:19;;;;;;;1.10;1.00;;;11.00;97.30;;;;;;5033882;28;20331;-88
2022/10/02 03:56:49;;;;;;;1.00;0.93;;;11.00;97.30;;;;;;5027737;28;20727;-90
2022/10/02 03:59:25;;;;;;;1.30;1.20;;;11.00;97.30;;;;;;5030441;28;20454;-87
2022/10/02 04:01:53;;;;;;;5.03;1.87;;;11.00;97.30;;;;;;5024391;28;20938;-87
2022/10/02 04:04:25;;;;;;;1.07;0.97;;;11.00;97.30;;;;;;5042601;28;20422;-88
2022/10/02 04:06:59;;;;;;;1.80;1.70;;;11.00;97.30;;;;;;5042844;28;20464;-87
2022/10/02 04:09:47;;;;;;;1.17;1.10;;;11.10;97.30;;;;;;5034225;28;20447;-87
2022/10/02 04:12:18;;;;;;;1.50;1.20;;;11.10;97.30;;;;;;5032636;28;20497;-88
2022/10/02 04:15:00;;;;;;;1.27;1.17;;;11.10;97.30;;;;;;5024293;28;20424;-87
2022/10/02 04:17:43;;;;;;;1.00;0.83;;;11.10;97.30;;;;;;5049192;28;20434;-88
2022/10/02 04:20:15;;;;;;;3.67;1.50;;;11.20;97.30;;;;;;5037414;28;20471;-88
2022/10/02 04:22:49;;;;;;;1.00;0.90;;;11.20;97.30;;;;;;5020523;28;20465;-88
2022/10/02 04:25:18;;;;;;;1.20;1.10;;;11.20;97.30;;;;;;5032803;28;20462;-86
2022/10/02 04:27:55;;;;;;;1.73;0.90;;;11.20;97.30;;;;;;5034308;28;20467;-87
2022/10/02 04:30:21;;;;;;;1.20;1.10;;;11.20;97.30;;;;;;5032833;28;20531;-88
2022/10/02 04:32:47;;;;;;;6.30;1.37;;;11.20;97.30;;;;;;5033063;28;20475;-88
2022/10/02 04:35:31;;;;;;;2.17;1.30;;;11.20;97.30;;;;;;5032801;28;20424;-88
2022/10/02 04:38:12;;;;;;;5.53;2.33;;;11.20;97.30;;;;;;5020021;28;20432;-88
2022/10/02 04:40:38;;;;;;;1.17;1.07;;;11.20;97.30;;;;;;5013728;28;20475;-89
2022/10/02 04:43:31;;;;;;;1.90;1.00;;;11.20;97.30;;;;;;5026218;28;20660;-87
2022/10/02 04:46:10;;;;;;;9.53;1.83;;;11.20;97.30;;;;;;5025241;28;20212;-87
2022/10/02 04:48:56;;;;;;;1.00;0.90;;;11.20;97.30;;;;;;5016824;28;20419;-87
2022/10/02 04:51:47;;;;;;;1.37;1.27;;;11.20;97.30;;;;;;5027938;28;20499;-88
2022/10/02 04:54:34;;;;;;;1.17;1.10;;;11.20;97.30;;;;;;5039941;28;20416;-86
2022/10/02 04:57:59;;;;;;;1.50;1.20;;;11.20;97.30;;;;;;5028554;28;20949;-88
2022/10/02 05:00:33;;;;;;;0.80;0.80;;;11.20;97.30;;;;;;5004091;28;20455;-84
2022/10/02 05:03:24;;;;;;;2.63;1.63;;;11.20;97.30;;;;;;5023494;28;20422;-86
2022/10/02 05:09:54;;;;;;;1.67;1.57;;;11.10;97.30;;;;;;5023637;28;20443;-87
2022/10/02 05:12:35;;;;;;;1.10;1.00;;;11.10;97.30;;;;;;5027302;28;20426;-87
2022/10/02 05:15:24;;;;;;;2.13;1.97;;;11.00;97.30;;;;;;5032900;28;20427;-88
2022/10/02 05:18:32;;;;;;;1.63;1.37;;;11.00;97.30;;;;;;5025651;28;20451;-88
2022/10/02 05:21:26;;;;;;;1.03;0.90;;;11.00;97.30;;;;;;5030564;28;20477;-87
2022/10/02 05:24:27;;;;;;;1.23;1.13;;;11.00;97.30;;;;;;5032260;28;20415;-88
2022/10/02 05:27:05;;;;;;;1.30;1.27;;;11.00;97.30;;;;;;5027781;28;20988;-89
2022/10/02 05:29:51;;;;;;;1.67;1.20;;;11.00;97.30;;;;;;5031750;28;20446;-88
2022/10/02 05:32:38;;;;;;;1.43;1.33;;;11.00;97.30;;;;;;5045588;28;20407;-88
2022/10/02 05:35:35;;;;;;;1.83;1.50;;;11.00;97.30;;;;;;5029746;28;20793;-88
2022/10/02 05:38:12;;;;;;;24.40;1.97;;;11.00;97.30;;;;;;5011888;28;20458;-88
2022/10/02 05:41:02;;;;;;;7.33;1.60;;;11.00;97.30;;;;;;5019637;28;20441;-87
2022/10/02 05:43:40;;;;;;;1.07;1.00;;;11.00;97.30;;;;;;5030089;28;20438;-88
2022/10/02 05:46:27;;;;;;;1.37;1.27;;;11.00;97.30;;;;;;5031110;28;20859;-88
2022/10/02 05:48:59;;;;;;;1.90;1.73;;;10.90;97.30;;;;;;5035727;28;20443;-88
2022/10/02 05:51:52;;;;;;;1.83;1.40;;;10.90;97.30;;;;;;5025556;28;20440;-88
2022/10/02 05:54:39;;;;;;;8.37;3.60;;;10.90;97.30;;;;;;5012843;28;20985;-88
2022/10/02 05:57:30;;;;;;;2.03;1.37;;;10.90;97.30;;;;;;5025042;28;20499;-88
2022/10/02 06:00:12;;;;;;;10.57;2.40;;;10.90;97.30;;;;;;5014740;28;20470;-89
2022/10/02 06:03:07;;;;;;;4.00;2.43;;;10.90;97.30;;;;;;5021732;28;20517;-89
2022/10/02 06:05:42;;;;;;;4.13;3.90;;;10.90;97.30;;;;;;5022541;28;20431;-87
2022/10/02 06:08:13;;;;;;;1.53;1.37;;;10.90;97.30;;;;;;5031045;28;21115;-88
2022/10/02 06:10:49;;;;;;;4.30;1.30;;;11.00;97.30;;;;;;5031814;28;20431;-88
2022/10/02 06:13:34;;;;;;;1.20;1.10;;;11.00;97.30;;;;;;5019005;28;20486;-88
2022/10/02 06:16:14;;;;;;;0.90;0.90;;;11.00;97.30;;;;;;5030061;28;20411;-88
2022/10/02 06:18:43;;;;;;;2.13;1.40;;;11.10;97.30;;;;;;5030566;28;20820;-88
2022/10/02 06:21:42;;;;;;;1.10;1.00;;;11.10;97.30;;;;;;5032420;28;20418;-88
2022/10/02 06:24:34;;;;;;;1.20;1.10;;;11.20;97.30;;;;;;5031919;28;20419;-88
2022/10/02 06:27:14;;;;;;;1.43;1.00;;;11.20;97.30;;;;;;5033138;28;20498;-87
2022/10/02 06:29:55;;;;;;;1.30;1.20;;;11.30;97.30;;;;;;5043989;28;20538;-90
2022/10/02 06:32:44;;;;;;;1.43;1.33;;;11.30;97.30;;;;;;5048627;28;20510;-89
2022/10/02 06:35:12;;;;;;;1.10;1.00;;;11.40;97.30;;;;;;5022694;28;20427;-88
2022/10/02 06:37:57;;;;;;;7.80;1.60;;;11.50;97.30;;;;;;5048298;28;20437;-88
2022/10/02 06:41:01;;;;;;;4.97;1.93;;;11.50;97.30;;;;;;5042617;28;20449;-86
2022/10/02 06:44:11;;;;;;;1.97;1.87;;;11.60;97.30;;;;;;5027556;28;20518;-88
2022/10/02 06:46:44;;;;;;;1.50;1.03;;;11.80;97.30;;;;;;5052508;28;20461;-88
2022/10/02 06:49:56;;;;;;;3.73;1.90;;;11.90;97.30;;;;;;5030835;28;20578;-88
2022/10/02 06:52:51;;;;;;;1.47;1.37;;;11.90;97.30;;;;;;4989881;28;20654;-88
2022/10/02 06:55:32;;;;;;;8.53;1.93;;;12.10;97.30;;;;;;4992538;28;20429;-86
2022/10/02 06:58:40;;;;;;;1.13;1.03;;;12.20;97.30;;;;;;5023774;28;20429;-88
2022/10/02 07:01:12;;;;;;;1.00;0.90;;;12.30;97.30;;;;;;5019210;28;20423;-89
2022/10/02 07:03:53;;;;;;;1.13;1.03;;;12.50;97.30;;;;;;5023512;28;20422;-88
2022/10/02 07:06:32;;;;;;;2.70;2.50;;;12.60;97.30;;;;;;5036134;28;20649;-89
2022/10/02 07:09:49;;;;;;;2.00;1.20;;;12.80;97.30;;;;;;5048652;28;20461;-89
2022/10/02 07:12:47;;;;;;;1.73;1.67;;;13.00;97.30;;;;;;5039315;28;20936;-87
2022/10/02 07:15:37;;;;;;;1.00;0.90;;;13.10;97.30;;;;;;5037055;28;20412;-88
2022/10/02 07:18:34;;;;;;;2.40;1.60;;;13.20;97.30;;;;;;5050142;28;20770;-87
2022/10/02 07:21:06;;;;;;;2.70;1.30;;;13.30;97.30;;;;;;5054620;28;20442;-89
2022/10/02 07:24:09;;;;;;;1.20;1.10;;;13.30;97.30;;;;;;5047541;28;20945;-88
2022/10/02 07:26:44;;;;;;;1.63;1.53;;;13.20;97.30;;;;;;5054940;28;20449;-87
2022/10/02 07:29:13;;;;;;;3.90;3.70;;;13.20;97.30;;;;;;5056609;28;20429;-89
2022/10/02 07:32:24;;;;;;;4.40;1.40;;;13.30;97.30;;;;;;5056799;28;20413;-89
2022/10/02 07:35:18;;;;;;;2.00;1.70;;;13.40;97.30;;;;;;5050330;28;20415;-88
2022/10/02 07:37:59;;;;;;;1.97;1.50;;;13.60;97.30;;;;;;5021590;28;20432;-88
2022/10/02 07:40:51;;;;;;;1.07;1.03;;;13.70;97.30;;;;;;5036311;28;20467;-89
2022/10/02 07:43:44;;;;;;;1.10;1.00;;;13.90;97.30;;;;;;5036194;28;20494;-90
2022/10/02 07:46:29;;;;;;;1.37;1.00;;;14.00;97.30;;;;;;5021119;28;20428;-89
2022/10/02 07:49:28;;;;;;;1.83;1.37;;;14.20;97.30;;;;;;5028472;28;20610;-88
2022/10/02 07:52:05;;;;;;;1.00;0.90;;;14.40;97.30;;;;;;5037843;28;20436;-88
2022/10/02 07:54:46;;;;;;;1.20;1.10;;;14.50;97.30;;;;;;5033361;28;20422;-89
2022/10/02 07:57:30;;;;;;;1.33;1.13;;;14.50;97.30;;;;;;5050605;28;20492;-88
2022/10/02 08:00:14;;;;;;;1.40;1.40;;;14.50;97.30;;;;;;5039793;28;20426;-88
2022/10/02 08:02:55;;;;;;;1.13;1.13;;;14.40;97.30;;;;;;5037943;28;20416;-88
2022/10/02 08:05:25;;;;;;;1.13;1.03;;;14.40;97.30;;;;;;5039170;28;21060;-88
2022/10/02 08:08:29;;;;;;;3.63;1.53;;;14.40;97.30;;;;;;5039470;28;20604;-89
2022/10/02 08:11:02;;;;;;;2.67;1.50;;;14.30;97.30;;;;;;5029507;28;20804;-88
2022/10/02 08:13:52;;;;;;;1.47;1.37;;;14.20;97.30;;;;;;5034929;28;20403;-89
2022/10/02 08:16:22;;;;;;;1.20;1.10;;;14.20;97.30;;;;;;5042975;28;20426;-89
2022/10/02 08:19:02;;;;;;;1.20;1.10;;;14.20;97.30;;;;;;5046172;28;20621;-88
2022/10/02 08:21:37;;;;;;;25.07;1.90;;;14.20;97.30;;;;;;5033251;28;20854;-88
2022/10/02 08:24:26;;;;;;;4.30;1.90;;;14.20;97.30;;;;;;5027637;28;20424;-87
2022/10/02 08:26:58;;;;;;;1.40;1.30;;;14.20;97.30;;;;;;5025335;28;20455;-88
2022/10/02 08:30:05;;;;;;;2.50;1.30;;;14.20;97.30;;;;;;5056126;28;20585;-88
2022/10/02 08:32:35;;;;;;;1.00;0.90;;;14.20;97.30;;;;;;5027449;28;20812;-88
2022/10/02 08:35:15;;;;;;;1.10;1.00;;;14.20;97.30;;;;;;5036740;28;20439;-89
2022/10/02 08:37:56;;;;;;;18.27;1.77;;;14.10;97.30;;;;;;5040864;28;20493;-89
2022/10/02 08:40:52;;;;;;;1.43;1.33;;;14.10;97.30;;;;;;5046422;28;20527;-88
2022/10/02 08:43:46;;;;;;;1.30;1.20;;;14.10;97.30;;;;;;5029711;28;20426;-88
2022/10/02 08:46:23;;;;;;;2.10;1.63;;;14.10;97.30;;;;;;5033446;28;20823;-89
2022/10/02 08:49:24;;;;;;;0.97;0.93;;;14.10;97.30;;;;;;5050941;28;20446;-88
2022/10/02 08:52:14;;;;;;;2.50;1.10;;;14.10;97.30;;;;;;5021967;28;20433;-89
2022/10/02 08:55:04;;;;;;;1.00;0.90;;;14.10;97.30;;;;;;5035437;28;20455;-88
2022/10/02 08:57:54;;;;;;;1.10;1.07;;;14.10;97.30;;;;;;5052620;28;20423;-89
2022/10/02 09:00:58;;;;;;;2.10;1.00;;;14.10;97.30;;;;;;5026499;28;20446;-88
2022/10/02 09:03:44;;;;;;;19.03;2.07;;;14.20;97.30;;;;;;5035810;28;21056;-90
2022/10/02 09:06:12;;;;;;;1.30;1.20;;;14.20;97.30;;;;;;5021619;28;20922;-88
2022/10/02 09:09:23;;;;;;;1.53;1.30;;;14.30;97.30;;;;;;5032662;28;20419;-88
2022/10/02 09:12:04;;;;;;;4.43;2.27;;;14.30;97.30;;;;;;5036240;28;20863;-88
2022/10/02 09:14:50;;;;;;;15.10;1.53;;;14.40;97.30;;;;;;5027856;28;20423;-89
2022/10/02 09:17:42;;;;;;;5.47;1.90;;;14.40;97.30;;;;;;5045342;28;20967;-90
2022/10/02 09:20:46;;;;;;;1.20;1.00;;;14.40;97.30;;;;;;5029727;28;20886;-88
2022/10/02 09:23:18;;;;;;;1.70;1.60;;;14.50;97.30;;;;;;5004660;28;20415;-88
2022/10/02 09:26:14;;;;;;;3.17;1.87;;;14.50;97.30;;;;;;5052756;28;20415;-88
2022/10/02 09:29:05;;;;;;;1.23;1.13;;;14.60;97.30;;;;;;5044511;28;20520;-88
2022/10/02 09:32:08;;;;;;;1.97;1.17;;;14.70;97.30;;;;;;5052125;28;20407;-88
2022/10/02 09:35:02;;;;;;;1.37;1.27;;;14.80;97.30;;;;;;5043675;28;20492;-87
2022/10/02 09:37:44;;;;;;;1.17;1.07;;;14.80;97.30;;;;;;5016212;28;20438;-89
2022/10/02 09:40:15;;;;;;;1.70;1.63;;;14.90;97.30;;;;;;5033707;28;20438;-87
2022/10/02 09:43:04;;;;;;;8.00;2.13;;;15.00;97.30;;;;;;5037020;28;20411;-88
2022/10/02 09:46:10;;;;;;;2.37;1.90;;;15.00;97.30;;;;;;5053354;28;20411;-88
2022/10/02 09:48:44;;;;;;;3.57;1.37;;;15.10;97.30;;;;;;5017908;28;20442;-88
2022/10/02 09:51:35;;;;;;;6.53;2.07;;;15.00;97.30;;;;;;5036501;28;20419;-88
2022/10/02 09:54:20;;;;;;;1.00;0.93;;;15.00;97.30;;;;;;5048864;28;20422;-89
2022/10/02 09:57:30;;;;;;;1.67;1.50;;;15.00;97.30;;;;;;5049587;28;20499;-88
2022/10/02 10:00:33;;;;;;;1.40;1.30;;;15.00;97.30;;;;;;5046200;28;20519;-89
2022/10/02 10:03:37;;;;;;;1.10;1.00;;;15.10;97.30;;;;;;5033897;28;20474;-88
2022/10/02 10:06:51;;;;;;;0.97;0.90;;;15.20;97.30;;;;;;5031606;28;20428;-89
2022/10/02 10:09:45;;;;;;;1.07;0.97;;;15.30;97.30;;;;;;5024230;28;20480;-89
2022/10/02 10:12:30;;;;;;;3.73;1.87;;;15.40;97.30;;;;;;5023457;28;20479;-88
2022/10/02 10:15:28;;;;;;;3.07;1.13;;;15.40;97.30;;;;;;5050131;28;20450;-88
2022/10/02 10:18:18;;;;;;;2.13;1.23;;;15.40;97.30;;;;;;5029612;28;20431;-91
2022/10/02 10:20:55;;;;;;;2.00;1.27;;;15.60;97.30;;;;;;5041838;28;20470;-91
2022/10/02 10:23:34;;;;;;;2.53;1.33;;;15.70;97.30;;;;;;5027076;28;20450;-92
2022/10/02 10:26:44;;;;;;;2.60;1.53;;;15.90;97.30;;;;;;5043950;28;20468;-90
2022/10/02 10:29:56;;;;;;;1.43;1.20;;;16.00;97.30;;;;;;5041253;28;20444;-92
2022/10/02 10:33:16;;;;;;;1.07;0.97;;;16.20;97.30;;;;;;5030148;28;20423;-87
2022/10/02 10:40:05;;;;;;;1.20;1.10;;;16.40;97.30;;;;;;5023541;28;20434;-88
2022/10/02 10:42:53;;;;;;;3.83;1.53;;;16.50;97.30;;;;;;5003147;28;20462;-88
2022/10/02 10:45:57;;;;;;;1.20;1.10;;;16.60;97.30;;;;;;5051544;28;20419;-91
2022/10/02 10:49:21;;;;;;;1.10;1.00;;;16.70;97.30;;;;;;5030235;28;20463;-88
2022/10/02 10:52:24;;;;;;;4.70;2.20;;;16.90;97.30;;;;;;5018073;28;20454;-89
2022/10/02 10:55:13;;;;;;;1.30;1.20;;;17.00;97.30;;;;;;4999405;28;20491;-91
2022/10/02 10:57:54;;;;;;;1.87;1.53;;;17.10;97.30;;;;;;5054221;28;20485;-89
2022/10/02 11:00:26;;;;;;;1.10;1.00;;;17.10;97.30;;;;;;5047307;28;20471;-88
2022/10/02 11:03:17;;;;;;;2.03;1.00;;;17.20;97.30;;;;;;5038522;28;20430;-88
2022/10/02 11:06:08;;;;;;;1.10;1.07;;;17.20;97.30;;;;;;5033736;28;20794;-88
2022/10/02 11:08:55;;;;;;;6.20;2.50;;;17.20;97.30;;;;;;5029065;28;20469;-88
2022/10/02 11:11:24;;;;;;;9.23;1.30;;;17.20;97.30;;;;;;5032278;28;20462;-89
2022/10/02 11:13:53;;;;;;;2.87;2.70;;;17.30;97.30;;;;;;5043698;28;20419;-91
2022/10/02 11:16:42;;;;;;;1.00;0.90;;;17.40;97.30;;;;;;5026610;28;20519;-89
2022/10/02 11:19:18;;;;;;;1.30;1.17;;;17.40;97.30;;;;;;5039375;28;20980;-89
2022/10/02 11:21:56;;;;;;;0.90;0.80;;;17.40;97.30;;;;;;5032017;28;20710;-87
2022/10/02 11:24:49;;;;;;;1.47;1.23;;;17.40;97.30;;;;;;5016915;28;20420;-89
2022/10/02 11:27:56;;;;;;;10.33;1.70;;;17.30;97.30;;;;;;5011315;28;20466;-89
2022/10/02 11:33:55;;;;;;;3.90;1.87;;;17.20;97.30;;;;;;5016524;28;20453;-88
2022/10/02 11:36:56;;;;;;;0.97;0.90;;;17.30;97.30;;;;;;5051775;28;20567;-90
2022/10/02 11:40:16;;;;;;;1.83;1.47;;;17.50;97.30;;;;;;5025686;28;20423;-88
2022/10/02 11:43:27;;;;;;;1.50;1.10;;;17.80;97.30;;;;;;4995548;28;20415;-90
2022/10/02 11:46:05;;;;;;;2.10;1.10;;;17.80;97.20;;;;;;4926964;29;20509;-90
2022/10/02 11:48:45;;;;;;;7.03;1.30;;;17.80;97.20;;;;;;4948010;28;20600;-89
2022/10/02 11:51:35;;;;;;;4.60;1.20;;;17.90;97.30;;;;;;4980234;28;20444;-89
2022/10/02 11:57:46;;;;;;;1.07;0.97;;;18.10;96.40;;;;;;4992500;28;20791;-87
2022/10/02 12:00:56;;;;;;;1.23;1.17;;;18.00;96.70;;;;;;4984049;28;20634;-88
2022/10/02 12:04:06;;;;;;;1.73;1.07;;;18.00;97.10;;;;;;4991906;28;20420;-87
2022/10/02 12:07:16;;;;;;;2.40;2.20;;;18.00;96.30;;;;;;4961789;28;20497;-89
2022/10/02 12:10:36;;;;;;;2.40;1.70;;;17.90;96.70;;;;;;4976669;28;20449;-88
2022/10/02 12:13:45;;;;;;;11.83;2.13;;;18.00;97.20;;;;;;4936751;29;20775;-89
2022/10/02 12:16:55;;;;;;;1.23;1.17;;;18.00;96.70;;;;;;4961783;28;20955;-88
2022/10/02 12:19:45;;;;;;;0.97;0.87;;;18.20;96.70;;;;;;4914846;28;20465;-91
2022/10/02 12:28:55;;;;;;;3.67;1.67;;;18.10;96.30;;;;;;5038668;28;20457;-90
2022/10/02 12:31:27;;;;;;;12.23;1.20;;;18.10;96.20;;;;;;5029409;28;20762;-89
2022/10/02 12:34:04;;;;;;;1.30;1.23;;;18.10;95.10;;;;;;5032284;28;20411;-89
2022/10/02 12:36:57;;;;;;;1.30;1.20;;;17.90;95.10;;;;;;5048884;28;20956;-89
2022/10/02 12:40:00;;;;;;;1.00;0.90;;;17.90;95.40;;;;;;5041962;28;20432;-89
2022/10/02 12:42:39;;;;;;;1.40;1.30;;;18.00;95.60;;;;;;5016939;28;20419;-88
2022/10/02 12:45:17;;;;;;;4.10;1.47;;;18.20;95.50;;;;;;5042448;28;20421;-89
2022/10/02 12:48:04;;;;;;;1.17;1.17;;;18.20;95.20;;;;;;5035090;28;20493;-88
2022/10/02 12:50:46;;;;;;;7.60;3.30;;;18.20;95.20;;;;;;5036102;28;20439;-88
2022/10/02 12:53:21;;;;;;;1.87;1.77;;;18.20;95.30;;;;;;5031703;28;20426;-88
2022/10/02 12:56:08;;;;;;;2.70;1.57;;;18.20;94.70;;;;;;5028219;28;20411;-88
2022/10/02 12:58:40;;;;;;;5.90;1.63;;;18.20;94.80;;;;;;5046377;28;20466;-88
2022/10/02 13:01:41;;;;;;;5.03;2.50;;;18.10;94.80;;;;;;5030221;28;20865;-89
2022/10/02 13:04:51;;;;;;;4.00;1.27;;;17.90;94.20;;;;;;5030195;28;20421;-88
2022/10/02 13:07:42;;;;;;;1.17;1.07;;;17.70;95.00;;;;;;5025799;28;20465;-89
2022/10/02 13:10:27;;;;;;;3.83;1.80;;;17.50;94.30;;;;;;5034178;28;20450;-88
2022/10/02 13:13:34;;;;;;;4.23;1.43;;;17.40;95.30;;;;;;5030599;28;20470;-89
2022/10/02 13:16:13;;;;;;;1.40;1.10;;;17.30;96.20;;;;;;5022478;28;20415;-88
2022/10/02 13:18:51;;;;;;;3.30;2.27;;;17.30;97.30;;;;;;5030611;28;20805;-88
2022/10/02 13:21:36;;;;;;;1.60;1.30;;;17.30;97.30;;;;;;5030805;28;20509;-89
2022/10/02 13:24:39;;;;;;;2.40;1.47;;;17.40;97.30;;;;;;5030634;28;20412;-88
2022/10/02 13:27:43;;;;;;;1.07;1.03;;;17.40;97.30;;;;;;5028495;28;20981;-88
2022/10/02 13:30:24;;;;;;;1.10;1.00;;;17.40;97.30;;;;;;5034634;28;20431;-88
2022/10/02 13:33:20;;;;;;;6.83;1.90;;;17.40;97.30;;;;;;5031847;28;20802;-88
2022/10/02 13:36:13;;;;;;;1.90;1.20;;;17.30;97.30;;;;;;5028642;28;20430;-88
2022/10/02 13:38:57;;;;;;;9.33;1.50;;;17.20;97.30;;;;;;5036207;28;20789;-88
2022/10/02 13:41:37;;;;;;;2.53;2.33;;;17.10;97.30;;;;;;5031550;28;20472;-88
2022/10/02 13:44:33;;;;;;;4.33;1.70;;;17.00;97.30;;;;;;5030133;28;20415;-89
2022/10/02 13:47:22;;;;;;;2.37;2.20;;;17.00;96.50;;;;;;5023262;28;20474;-88
2022/10/02 13:50:17;;;;;;;5.83;3.67;;;17.00;95.90;;;;;;5031221;28;20867;-88
2022/10/02 13:53:18;;;;;;;1.90;1.77;;;17.10;96.60;;;;;;5019235;28;20424;-88
2022/10/02 13:55:51;;;;;;;1.80;1.60;;;17.20;97.30;;;;;;5013095;28;20570;-87
2022/10/02 13:58:35;;;;;;;1.53;1.43;;;17.60;97.30;;;;;;5034527;28;20446;-88
2022/10/02 14:01:28;;;;;;;1.23;1.13;;;18.10;97.30;;;;;;5039139;28;20748;-88
2022/10/02 14:04:17;;;;;;;2.50;2.30;;;18.50;95.30;;;;;;5035441;28;20419;-89
2022/10/02 14:07:04;;;;;;;1.67;1.67;;;18.60;94.40;;;;;;5016797;28;20534;-87
2022/10/02 14:10:01;;;;;;;2.50;1.60;;;18.50;94.30;;;;;;4991532;28;20554;-90
2022/10/02 14:12:59;;;;;;;3.47;1.97;;;18.40;94.10;;;;;;5022394;28;20408;-89
2022/10/02 14:15:42;;;;;;;3.93;2.77;;;18.40;94.00;;;;;;5012961;28;20424;-89
2022/10/02 14:18:48;;;;;;;1.30;1.20;;;18.50;94.00;;;;;;5034947;28;20434;-90
2022/10/02 14:21:41;;;;;;;2.60;1.83;;;18.50;93.80;;;;;;5030132;28;20431;-89
2022/10/02 14:24:12;;;;;;;3.63;3.20;;;18.50;94.30;;;;;;5027234;28;20431;-90
2022/10/02 14:26:43;;;;;;;1.10;1.00;;;18.70;94.10;;;;;;5019577;28;20470;-88
2022/10/02 14:29:33;;;;;;;4.00;1.27;;;18.90;93.80;;;;;;5027183;28;20438;-88
2022/10/02 14:32:32;;;;;;;3.47;1.53;;;19.20;92.80;;;;;;5019287;28;20808;-89
2022/10/02 14:35:16;;;;;;;2.40;1.70;;;19.30;91.70;;;;;;5017818;28;20927;-88
2022/10/02 14:37:50;;;;;;;6.83;2.33;;;19.40;92.10;;;;;;5033769;28;20490;-89
2022/10/02 14:40:20;;;;;;;1.90;1.37;;;19.70;91.90;;;;;;5045716;28;20529;-88
2022/10/02 14:43:00;;;;;;;1.83;1.47;;;19.90;91.10;;;;;;5046289;28;20991;-88
2022/10/02 14:45:58;;;;;;;2.20;2.00;;;19.90;89.40;;;;;;5032068;28;20526;-88
2022/10/02 14:48:33;;;;;;;2.70;2.23;;;19.80;89.90;;;;;;5011085;28;20974;-89
2022/10/02 14:51:04;;;;;;;1.87;1.53;;;19.80;90.70;;;;;;5035994;28;20564;-85
2022/10/02 14:53:45;;;;;;;1.03;0.97;;;19.80;90.40;;;;;;5022382;28;20465;-89
2022/10/02 14:56:36;;;;;;;5.20;1.10;;;19.90;90.60;;;;;;5029686;28;20853;-88
2022/10/02 14:59:45;;;;;;;1.63;1.53;;;19.90;91.00;;;;;;5033341;28;20444;-89